Deer Lodge, Tennessee
Current Conditions -  °F | °C
As of 12:53 PM on Wednesday 26 Nov 2014 (Local Time) from KCSV Reporting Station
Clear Clear  
Wind Chill: 42°   Ceiling: Unl
Heat Index: 44°   Visibility: 10mi
Dew Point: 23°   Wind: 5mph
Humidity: 43%   Direction: NA
Pressure: 30.05"   Gusts: NA
Location:  36.2°N, 84.76°W
Report Text: KCSV 261753Z AUTO VRB04KT 10SM CLR 07/M05 A3005 RMK AO2 SLP177 T00671050 10072 20000 58013
Loading
Personal Weather Stations






























Interactive Weather Map New forecast layout! Learn more

10-Day Weather Forecast

Advertisements
Track Severe Weather on mobile